Hamilton Island, Australia
Current Conditions -  °F | °C
As of 7:30 PM on Wednesday 22 Oct 2014 (Local Time) from YBHM Reporting Station
Scattered Clouds Scattered Clouds  
Wind Chill: 72°   Ceiling: Unl
Heat Index: 72°   Visibility: 6mi
Dew Point: 63°   Wind: 25mph
Humidity: 73%   Direction: 130°SE
Pressure: 30.09"   Gusts: NA
Location:  20.35°S, 148.95°E
Report Text: YBHM 220930Z AUTO 13022KT 9999 // SCT028 22/17 Q1019
Loading
Personal Weather Stations






























Interactive Weather Map
Tropical Storm Tracking
New forecast layout! Learn more

10-Day Weather Forecast

Advertisements
Track Severe Weather on mobile